Time;durP1;ratioP1;P1;durP2;ratioP2;P2;SDS_P1;SDS_P2;PMS_P1;PMS_P2;Temp;Humidity;BMP_temperature;BMP_pressure;BME280_temperature;BME280_humidity;BME280_pressure;Samples;Min_cycle;Max_cycle;Signal;HPM_P1;HPM_P2
2020/12/22 00:02:03;;;;;;;3.35;1.10;;;;;;;27.24;32.25;96675.16;4945554;28;20038;-35
2020/12/22 00:04:28;;;;;;;4.90;1.50;;;;;;;27.26;32.21;96675.91;4946160;28;20409;-35
2020/12/22 00:06:57;;;;;;;1.77;1.30;;;;;;;27.26;32.15;96668.00;4965509;28;20559;-34
2020/12/22 00:09:22;;;;;;;1.30;1.20;;;;;;;27.27;32.18;96669.72;4952312;28;20039;-33
2020/12/22 00:11:49;;;;;;;1.92;1.30;;;;;;;27.29;32.24;96665.19;4954869;28;20823;-35
2020/12/22 00:14:15;;;;;;;1.73;1.40;;;;;;;27.29;32.27;96667.81;4947957;28;20057;-35
2020/12/22 00:16:42;;;;;;;2.33;1.50;;;;;;;27.30;32.10;96664.25;4958625;28;20046;-33
2020/12/22 00:19:08;;;;;;;2.65;1.55;;;;;;;27.30;32.08;96648.47;4945834;28;20049;-37
2020/12/22 00:21:34;;;;;;;1.75;1.40;;;;;;;27.29;32.07;96644.16;4949614;28;20517;-36
2020/12/22 00:23:59;;;;;;;6.40;1.40;;;;;;;27.30;32.00;96643.19;4950689;28;20039;-33
2020/12/22 00:26:25;;;;;;;3.13;1.20;;;;;;;27.30;32.06;96643.19;4951186;28;20546;-33
2020/12/22 00:28:51;;;;;;;1.90;1.45;;;;;;;27.29;31.94;96631.00;4957642;28;20038;-34
2020/12/22 00:31:16;;;;;;;3.53;1.00;;;;;;;27.30;32.03;96622.16;4949122;28;20054;-33
2020/12/22 00:33:42;;;;;;;1.50;1.02;;;;;;;27.28;32.05;96621.41;4943436;28;20050;-37
2020/12/22 00:36:07;;;;;;;2.65;1.40;;;;;;;27.29;31.94;96619.63;4955443;28;20425;-37
2020/12/22 00:38:33;;;;;;;1.77;1.10;;;;;;;27.27;31.97;96612.66;4959667;28;20108;-37
2020/12/22 00:40:59;;;;;;;2.08;0.98;;;;;;;27.27;31.98;96609.22;4947713;28;20038;-36
2020/12/22 00:43:25;;;;;;;1.48;1.00;;;;;;;27.27;31.98;96619.72;4952908;28;20060;-34
2020/12/22 00:45:50;;;;;;;2.42;1.23;;;;;;;27.25;32.14;96616.34;4937269;28;20035;-32
2020/12/22 00:48:15;;;;;;;2.25;0.90;;;;;;;27.25;32.14;96613.72;4957908;28;20058;-34
2020/12/22 00:50:41;;;;;;;1.25;1.13;;;;;;;27.24;32.00;96612.03;4954227;28;20054;-33
2020/12/22 00:53:07;;;;;;;2.17;1.02;;;;;;;27.25;32.08;96608.44;4957000;28;20046;-34
2020/12/22 00:55:33;;;;;;;2.65;1.27;;;;;;;27.25;32.04;96618.97;4959504;28;20657;-34
2020/12/22 00:57:58;;;;;;;2.47;1.30;;;;;;;27.25;32.05;96618.97;4947794;28;20054;-34
2020/12/22 01:00:24;;;;;;;2.30;1.33;;;;;;;27.25;31.98;96629.50;4940914;28;20038;-34
2020/12/22 01:02:50;;;;;;;3.38;1.10;;;;;;;27.25;32.06;96630.34;4957181;28;20042;-34
2020/12/22 01:05:16;;;;;;;1.83;0.95;;;;;;;27.25;31.92;96629.50;4949497;28;20042;-33
2020/12/22 01:07:41;;;;;;;1.20;1.10;;;;;;;27.24;32.01;96631.25;4961688;28;20039;-34
2020/12/22 01:10:08;;;;;;;1.33;1.05;;;;;;;27.26;31.92;96631.19;4951791;28;20051;-36
2020/12/22 01:12:33;;;;;;;1.20;1.10;;;;;;;27.27;32.05;96635.53;4951781;28;20077;-36
2020/12/22 01:14:59;;;;;;;1.15;0.80;;;;;;;27.27;31.89;96630.25;4957116;28;20769;-37
2020/12/22 01:17:25;;;;;;;1.67;0.98;;;;;;;27.27;31.99;96635.53;4954682;28;20042;-34
2020/12/22 01:19:52;;;;;;;1.58;1.02;;;;;;;27.26;32.03;96641.69;4953422;28;20412;-38
2020/12/22 01:22:18;;;;;;;1.38;1.10;;;;;;;27.27;32.02;96631.09;4961870;28;20035;-36
2020/12/22 01:24:43;;;;;;;3.08;1.10;;;;;;;27.29;31.83;96619.63;4946180;28;20053;-37
2020/12/22 01:27:09;;;;;;;1.65;1.10;;;;;;;27.29;31.94;96620.47;4947634;28;20039;-35
2020/12/22 01:29:34;;;;;;;1.17;1.00;;;;;;;27.28;31.91;96610.91;4961516;28;20088;-34
2020/12/22 01:32:00;;;;;;;1.05;0.95;;;;;;;27.29;31.82;96615.22;4944397;28;20047;-34
2020/12/22 01:34:25;;;;;;;2.08;0.95;;;;;;;27.30;31.93;96611.63;4947035;28;20101;-34
2020/12/22 01:36:50;;;;;;;2.13;1.00;;;;;;;27.30;31.95;96616.88;4973683;28;20054;-34
2020/12/22 01:39:16;;;;;;;1.67;1.08;;;;;;;27.30;31.90;96616.88;4953515;28;20035;-33
2020/12/22 01:41:41;;;;;;;1.80;1.00;;;;;;;27.29;31.83;96619.63;4950888;28;20105;-35
2020/12/22 01:44:11;;;;;;;1.20;0.95;;;;;;;27.30;32.01;96618.69;4941875;28;20755;-34
2020/12/22 01:46:39;;;;;;;1.13;0.90;;;;;;;27.30;31.89;96616.88;4953193;28;20484;-34
2020/12/22 01:49:18;;;;;;;1.10;1.00;;;;;;;27.09;31.98;96596.25;4954729;28;20055;-34
2020/12/22 01:51:44;;;;;;;1.35;1.00;;;;;;;27.30;31.97;96619.53;4955224;28;20141;-34
2020/12/22 01:54:09;;;;;;;1.92;0.98;;;;;;;27.29;31.83;96620.47;4943378;28;20050;-38
2020/12/22 01:56:38;;;;;;;1.63;1.17;;;;;;;27.30;31.99;96627.41;4957277;28;20039;-34
2020/12/22 01:59:04;;;;;;;5.40;1.15;;;;;;;27.29;31.96;96624.88;4967215;28;20441;-33
2020/12/22 02:01:30;;;;;;;1.17;0.82;;;;;;;27.28;31.83;96629.31;4952746;28;20035;-35
2020/12/22 02:03:55;;;;;;;1.08;0.75;;;;;;;27.27;32.03;96633.72;4952733;28;20026;-34
2020/12/22 02:06:21;;;;;;;1.33;0.95;;;;;;;27.29;31.82;96644.16;4972653;28;20520;-38
2020/12/22 02:08:46;;;;;;;1.15;0.80;;;;;;;27.27;32.01;96652.13;4959581;28;20039;-35
2020/12/22 02:11:11;;;;;;;1.00;0.90;;;;;;;27.28;31.78;96645.09;4929448;28;20078;-33
2020/12/22 02:13:37;;;;;;;1.17;0.90;;;;;;;27.29;32.01;96643.28;4956164;28;20047;-33
2020/12/22 02:16:03;;;;;;;1.13;0.88;;;;;;;27.29;31.87;96636.25;4954449;28;20408;-34
2020/12/22 02:18:28;;;;;;;3.55;1.10;;;;;;;27.29;31.95;96620.47;4952713;28;20062;-33
2020/12/22 02:21:01;;;;;;;1.45;0.77;;;;;;;27.26;31.98;96621.50;4948336;28;20535;-33
2020/12/22 02:23:27;;;;;;;3.35;1.20;;;;;;;27.26;32.05;96626.78;4936928;28;20035;-34
2020/12/22 02:25:52;;;;;;;2.65;1.13;;;;;;;27.26;31.91;96620.66;4948476;28;20530;-35
2020/12/22 02:28:18;;;;;;;1.08;0.80;;;;;;;27.24;32.01;96636.53;4954229;28;20109;-34
2020/12/22 02:30:43;;;;;;;3.38;1.20;;;;;;;27.23;32.13;96636.66;4946204;28;20057;-35
2020/12/22 02:33:09;;;;;;;1.30;0.82;;;;;;;27.25;32.06;96629.50;4961711;28;20042;-34
2020/12/22 02:35:35;;;;;;;3.15;0.80;;;;;;;27.26;32.14;96620.66;4950162;28;21312;-32
2020/12/22 02:38:01;;;;;;;1.48;0.90;;;;;;;27.25;31.94;96614.56;4953889;28;20051;-36
2020/12/22 02:40:26;;;;;;;1.88;1.00;;;;;;;27.24;32.06;96604.97;4954807;28;20057;-33
2020/12/22 02:42:52;;;;;;;1.35;0.85;;;;;;;27.26;32.05;96610.13;4965524;28;20034;-33
2020/12/22 02:45:18;;;;;;;1.02;0.80;;;;;;;27.26;31.96;96615.38;4959842;28;20035;-36
2020/12/22 02:47:43;;;;;;;1.17;0.75;;;;;;;27.27;31.88;96622.38;4955113;28;20039;-37
2020/12/22 02:50:09;;;;;;;2.65;0.80;;;;;;;27.26;31.99;96618.03;4976126;28;20081;-36
2020/12/22 02:52:35;;;;;;;0.70;0.70;;;;;;;27.26;32.04;96613.63;4951160;28;20039;-36
2020/12/22 02:55:00;;;;;;;1.75;0.80;;;;;;;27.26;32.08;96610.13;4963093;28;20030;-34
2020/12/22 02:57:26;;;;;;;0.73;0.60;;;;;;;27.27;31.89;96609.22;4953810;28;20508;-34
2020/12/22 02:59:52;;;;;;;0.98;0.70;;;;;;;27.28;31.83;96603.00;4950353;28;20562;-34
2020/12/22 03:02:17;;;;;;;1.25;0.70;;;;;;;27.29;31.91;96615.22;4945689;28;20097;-35
2020/12/22 03:04:44;;;;;;;1.15;0.73;;;;;;;27.29;32.07;96616.97;4951469;28;20114;-34
2020/12/22 03:07:09;;;;;;;3.55;0.88;;;;;;;27.28;31.87;96608.25;4962598;28;20035;-39
2020/12/22 03:09:35;;;;;;;1.23;0.70;;;;;;;27.27;31.92;96610.03;4957243;28;20622;-33
2020/12/22 03:12:01;;;;;;;0.95;0.60;;;;;;;27.27;32.07;96607.41;4954458;28;20554;-33
2020/12/22 03:14:27;;;;;;;2.05;0.77;;;;;;;27.27;31.99;96606.59;4963901;28;20046;-36
2020/12/22 03:16:53;;;;;;;0.75;0.65;;;;;;;27.28;31.85;96603.00;4954343;28;20030;-33
2020/12/22 03:19:22;;;;;;;1.30;0.60;;;;;;;27.28;31.84;96603.00;4959509;28;20050;-35
2020/12/22 03:21:47;;;;;;;1.13;0.60;;;;;;;27.26;31.76;96600.47;4957815;28;22742;-34
2020/12/22 03:24:13;;;;;;;1.05;0.60;;;;;;;27.28;31.86;96608.25;4956892;28;20046;-33
2020/12/22 03:26:39;;;;;;;1.23;0.73;;;;;;;27.29;31.87;96604.69;4947420;28;20439;-37
2020/12/22 03:29:04;;;;;;;1.83;0.95;;;;;;;27.26;31.88;96597.84;4958897;28;20057;-32
2020/12/22 03:31:30;;;;;;;0.57;0.50;;;;;;;27.27;31.93;96598.69;4949662;28;20551;-35
2020/12/22 03:33:55;;;;;;;1.25;0.60;;;;;;;27.27;31.96;96586.34;4947357;28;20803;-37
2020/12/22 03:36:21;;;;;;;1.40;0.60;;;;;;;27.28;31.94;96576.69;4960546;28;20042;-34
2020/12/22 03:38:46;;;;;;;1.42;0.70;;;;;;;27.27;31.82;96586.34;4963138;28;20070;-34
2020/12/22 03:41:12;;;;;;;2.38;0.70;;;;;;;27.27;31.86;96601.31;4969453;28;20050;-35
2020/12/22 03:43:37;;;;;;;1.42;0.75;;;;;;;27.27;31.91;96596.06;4957372;28;20117;-33
2020/12/22 03:46:05;;;;;;;1.15;0.60;;;;;;;27.27;31.85;96602.16;4952243;28;20714;-35
2020/12/22 03:48:30;;;;;;;0.98;0.60;;;;;;;27.27;31.86;96609.22;4963337;28;20038;-34
2020/12/22 03:50:57;;;;;;;0.75;0.43;;;;;;;27.27;31.94;96614.47;4948328;28;20034;-35
2020/12/22 03:53:22;;;;;;;1.77;0.60;;;;;;;27.29;31.90;96616.97;4959182;28;20471;-33
2020/12/22 03:55:48;;;;;;;2.63;0.68;;;;;;;27.28;31.88;96608.25;4957438;28;20046;-33
2020/12/22 03:58:13;;;;;;;1.70;0.63;;;;;;;27.30;31.96;96616.88;4960704;28;20039;-35
2020/12/22 04:00:39;;;;;;;0.88;0.57;;;;;;;27.31;31.93;96630.91;4943949;28;20053;-35
2020/12/22 04:03:04;;;;;;;1.77;0.63;;;;;;;27.30;31.92;96632.69;4948453;28;20520;-35
2020/12/22 04:05:30;;;;;;;1.02;0.60;;;;;;;27.30;31.82;96622.16;4947135;28;20819;-34
2020/12/22 04:07:56;;;;;;;0.47;0.47;;;;;;;27.27;31.77;96617.09;4955300;28;20563;-35
2020/12/22 04:10:21;;;;;;;0.50;0.47;;;;;;;27.28;31.83;96626.69;4960422;28;20038;-36
2020/12/22 04:12:46;;;;;;;0.70;0.52;;;;;;;27.27;31.91;96640.78;4958043;28;20047;-33
2020/12/22 04:15:12;;;;;;;2.55;0.70;;;;;;;27.26;31.85;96631.19;4961627;28;20038;-33
2020/12/22 04:17:40;;;;;;;1.15;0.50;;;;;;;27.26;31.83;96628.53;4954107;28;20059;-33
2020/12/22 04:20:06;;;;;;;0.75;0.50;;;;;;;27.25;31.93;96629.50;4945466;28;20047;-35
2020/12/22 04:22:31;;;;;;;2.08;0.80;;;;;;;27.24;31.96;96627.81;4965186;28;20038;-34
2020/12/22 04:24:57;;;;;;;0.40;0.40;;;;;;;27.23;31.94;96626.94;4961770;28;20167;-33
2020/12/22 04:27:22;;;;;;;0.50;0.50;;;;;;;27.23;32.06;96626.94;4954718;28;20039;-35
2020/12/22 04:29:48;;;;;;;0.68;0.60;;;;;;;27.23;31.84;96620.88;4961775;28;20083;-34
2020/12/22 04:32:14;;;;;;;0.38;0.38;;;;;;;27.23;31.98;96626.13;4951053;28;20038;-35
2020/12/22 04:34:40;;;;;;;2.28;0.50;;;;;;;27.10;32.00;96603.19;4951054;28;20500;-33
2020/12/22 04:37:05;;;;;;;1.50;0.45;;;;;;;27.23;31.96;96624.31;4946296;28;20050;-32
2020/12/22 04:39:31;;;;;;;0.82;0.50;;;;;;;27.22;32.02;96634.94;4957471;28;20054;-34
2020/12/22 04:41:57;;;;;;;0.30;0.30;;;;;;;27.22;31.95;96650.72;4955994;28;20119;-33
2020/12/22 04:44:22;;;;;;;0.55;0.50;;;;;;;27.21;32.00;96649.03;4948000;28;20042;-35
2020/12/22 04:46:51;;;;;;;2.83;0.40;;;;;;;27.21;31.99;96643.78;4942766;28;20034;-34
2020/12/22 04:49:21;;;;;;;2.35;0.60;;;;;;;27.20;32.08;96642.94;4951597;28;20193;-35
2020/12/22 04:51:50;;;;;;;0.73;0.52;;;;;;;27.19;32.01;96630.72;4958259;28;20070;-34
2020/12/22 04:54:20;;;;;;;0.80;0.40;;;;;;;27.19;32.01;96630.72;4961384;28;20074;-34
2020/12/22 04:56:46;;;;;;;0.93;0.57;;;;;;;27.19;32.16;96632.50;4950671;28;20034;-34
2020/12/22 04:59:15;;;;;;;0.40;0.40;;;;;;;27.19;32.13;96622.00;4946822;28;20046;-34
2020/12/22 05:01:41;;;;;;;0.50;0.40;;;;;;;27.19;32.05;96637.78;4955295;28;20058;-36
2020/12/22 05:04:10;;;;;;;0.98;0.40;;;;;;;27.20;32.10;96628.94;4950004;28;20046;-33
2020/12/22 05:06:36;;;;;;;1.13;0.40;;;;;;;27.18;32.10;96622.91;4951297;28;20034;-33
2020/12/22 05:09:02;;;;;;;2.67;0.50;;;;;;;27.18;32.13;96612.38;4948111;28;20054;-36
2020/12/22 05:11:28;;;;;;;0.52;0.50;;;;;;;27.16;32.02;96619.53;4948112;28;20043;-33
2020/12/22 05:13:54;;;;;;;0.40;0.40;;;;;;;27.15;32.07;96628.38;4955827;28;20117;-34
2020/12/22 05:16:29;;;;;;;0.90;0.40;;;;;;;27.13;32.08;96631.94;4968376;28;20047;-34
2020/12/22 05:18:55;;;;;;;0.60;0.43;;;;;;;27.15;32.12;96636.28;4943082;28;20501;-35
2020/12/22 05:21:21;;;;;;;0.65;0.50;;;;;;;27.13;32.25;96637.22;4943852;28;20050;-34
2020/12/22 05:23:48;;;;;;;1.17;0.47;;;;;;;27.16;32.14;96640.59;4951726;28;21073;-32
2020/12/22 05:26:13;;;;;;;0.88;0.50;;;;;;;27.12;32.15;96640.75;4954025;28;20093;-35
2020/12/22 05:28:39;;;;;;;1.42;0.50;;;;;;;27.12;32.20;96648.66;4948796;28;20043;-34
2020/12/22 05:31:11;;;;;;;0.35;0.35;;;;;;;27.13;32.22;96647.75;4956927;28;20662;-36
2020/12/22 05:33:37;;;;;;;0.90;0.40;;;;;;;27.11;32.10;96646.97;4946527;28;20050;-33
2020/12/22 05:36:02;;;;;;;0.55;0.50;;;;;;;27.11;32.10;96649.59;4952649;28;20038;-35
2020/12/22 05:38:27;;;;;;;1.20;0.57;;;;;;;27.11;32.19;96643.47;4955386;28;20043;-34
2020/12/22 05:40:54;;;;;;;1.20;0.52;;;;;;;27.09;32.19;96640.97;4963473;28;20043;-35
2020/12/22 05:43:19;;;;;;;0.77;0.30;;;;;;;27.07;32.22;96639.34;4973412;28;20658;-35
2020/12/22 05:45:45;;;;;;;1.52;0.32;;;;;;;27.07;32.25;96637.56;4957029;28;20038;-32
2020/12/22 05:48:14;;;;;;;0.60;0.40;;;;;;;27.07;32.18;96642.84;4956115;28;20039;-35
2020/12/22 05:50:40;;;;;;;0.30;0.30;;;;;;;27.07;32.24;96642.84;4957596;28;20050;-33
2020/12/22 05:53:09;;;;;;;1.95;0.38;;;;;;;27.08;32.30;96662.94;4948397;28;20122;-36
2020/12/22 05:55:35;;;;;;;0.50;0.40;;;;;;;27.09;32.28;96648.84;4974870;28;20483;-34
2020/12/22 05:58:11;;;;;;;0.20;0.20;;;;;;;27.06;32.23;96646.41;4954154;28;20047;-37
2020/12/22 06:00:37;;;;;;;1.27;0.43;;;;;;;27.09;32.30;96664.66;4953144;28;20050;-34
2020/12/22 06:03:10;;;;;;;0.45;0.32;;;;;;;27.09;32.30;96667.28;4950972;28;20046;-37
2020/12/22 06:05:40;;;;;;;0.73;0.50;;;;;;;27.10;32.29;96671.59;4952624;28;20248;-32
2020/12/22 06:08:09;;;;;;;0.40;0.40;;;;;;;27.08;32.22;96676.06;4961659;28;20158;-36
2020/12/22 06:10:36;;;;;;;1.75;0.40;;;;;;;27.09;32.27;96671.69;4949699;28;20089;-33
2020/12/22 06:13:02;;;;;;;0.80;0.40;;;;;;;27.09;32.36;96677.78;4955665;28;20039;-35
2020/12/22 06:15:27;;;;;;;0.45;0.40;;;;;;;27.10;32.20;96666.31;4953143;28;20147;-38
2020/12/22 06:17:52;;;;;;;1.15;0.30;;;;;;;27.10;32.17;96668.97;4948115;28;20073;-35
2020/12/22 06:20:20;;;;;;;0.40;0.40;;;;;;;27.10;32.24;96676.84;4955207;28;20049;-36
2020/12/22 06:22:46;;;;;;;0.88;0.30;;;;;;;27.09;32.20;96680.41;4954037;28;20047;-34
2020/12/22 06:25:12;;;;;;;1.15;0.32;;;;;;;27.10;32.26;96674.22;4954297;28;20051;-34
2020/12/22 06:27:38;;;;;;;0.65;0.47;;;;;;;27.10;32.25;96682.09;4962758;28;20165;-36
2020/12/22 06:30:03;;;;;;;0.43;0.38;;;;;;;27.10;32.27;96673.34;4952635;28;20074;-38
2020/12/22 06:32:29;;;;;;;0.82;0.35;;;;;;;27.09;32.11;96677.78;4971852;28;20125;-35
2020/12/22 06:34:55;;;;;;;0.75;0.30;;;;;;;27.10;32.26;96679.47;4958042;28;20457;-36
2020/12/22 06:37:39;;;;;;;0.63;0.28;;;;;;;27.10;32.26;96674.22;4949025;28;21992;-33
2020/12/22 06:40:06;;;;;;;1.50;0.38;;;;;;;27.09;32.16;96672.53;4971252;28;20054;-36
2020/12/22 06:42:32;;;;;;;0.55;0.30;;;;;;;27.08;32.15;96673.44;4960961;28;20105;-35
2020/12/22 06:45:22;;;;;;;0.22;0.22;;;;;;;27.07;32.33;96673.53;4952174;28;20043;-35
2020/12/22 06:47:47;;;;;;;0.30;0.20;;;;;;;27.05;32.31;96660.50;4954025;28;20070;-33
2020/12/22 06:50:46;;;;;;;0.50;0.40;;;;;;;27.05;32.38;96671.03;4954119;28;20545;-35
2020/12/22 06:53:41;;;;;;;0.38;0.38;;;;;;;27.05;32.21;96676.28;4955519;28;20047;-36
2020/12/22 06:56:06;;;;;;;0.50;0.30;;;;;;;27.06;32.30;96677.97;4957285;28;20030;-36
2020/12/22 06:58:41;;;;;;;1.92;0.57;;;;;;;27.06;32.30;96672.72;4955429;28;20051;-34
2020/12/22 07:01:31;;;;;;;0.20;0.20;;;;;;;27.06;32.30;96680.59;4951770;28;20062;-36
2020/12/22 07:04:19;;;;;;;0.28;0.28;;;;;;;27.08;32.28;96680.50;4970167;28;20108;-34
2020/12/22 07:06:51;;;;;;;0.20;0.20;;;;;;;27.07;32.43;96679.66;4955235;28;20038;-34
2020/12/22 07:09:18;;;;;;;2.20;0.35;;;;;;;26.91;32.20;96652.53;4944856;28;20027;-33
2020/12/22 07:11:44;;;;;;;0.60;0.30;;;;;;;27.05;32.35;96673.66;4952771;28;20050;-36
2020/12/22 07:14:10;;;;;;;1.95;0.40;;;;;;;27.05;32.42;96676.28;4967312;28;20516;-33
2020/12/22 07:16:45;;;;;;;1.75;0.57;;;;;;;27.06;32.39;96683.22;4940593;28;20716;-34
2020/12/22 07:19:12;;;;;;;0.63;0.40;;;;;;;27.05;32.28;96676.28;4965365;28;20042;-35
2020/12/22 07:21:38;;;;;;;0.55;0.30;;;;;;;27.05;32.26;96670.16;4948530;28;20477;-36
2020/12/22 07:24:04;;;;;;;0.65;0.30;;;;;;;27.05;32.35;96671.03;4972327;28;20047;-34
2020/12/22 07:26:30;;;;;;;0.45;0.30;;;;;;;27.07;32.41;96678.78;4937613;28;20058;-35
2020/12/22 07:28:55;;;;;;;0.80;0.43;;;;;;;27.06;32.13;96677.09;4952553;28;20062;-32
2020/12/22 07:31:21;;;;;;;0.35;0.20;;;;;;;27.05;32.31;96680.69;4952756;28;20043;-44
2020/12/22 07:33:46;;;;;;;1.30;0.35;;;;;;;26.99;32.22;96666.13;4961580;28;20061;-34
2020/12/22 07:36:16;;;;;;;2.15;0.32;;;;;;;27.05;32.37;96692.06;4957915;28;20108;-32
2020/12/22 07:38:42;;;;;;;1.05;0.70;;;;;;;27.04;32.33;96690.34;4945466;28;20145;-33
2020/12/22 07:41:07;;;;;;;1.88;0.68;;;;;;;27.04;32.34;96686.88;4950735;28;20063;-43
2020/12/22 07:43:33;;;;;;;1.35;0.55;;;;;;;27.02;32.56;96681.72;4961895;28;20736;-34
2020/12/22 07:45:58;;;;;;;1.48;0.70;;;;;;;27.03;32.47;96685.22;4958953;28;20070;-34
2020/12/22 07:48:24;;;;;;;1.42;0.55;;;;;;;27.05;32.89;96684.16;4952110;28;20045;-35
2020/12/22 07:50:53;;;;;;;1.13;0.50;;;;;;;27.04;32.64;96689.53;4946987;28;20038;-36
2020/12/22 07:53:19;;;;;;;1.20;0.50;;;;;;;27.04;32.64;96698.25;4955600;28;20035;-35
2020/12/22 07:55:45;;;;;;;2.05;0.55;;;;;;;27.03;32.45;96699.19;4956529;28;20038;-35
2020/12/22 07:58:12;;;;;;;0.63;0.57;;;;;;;27.03;32.46;96699.19;4959235;28;20101;-33
2020/12/22 08:00:37;;;;;;;4.65;0.60;;;;;;;27.02;32.55;96705.38;4938006;28;20053;-32
2020/12/22 08:03:12;;;;;;;0.75;0.35;;;;;;;26.99;32.40;96703.78;4967986;28;20666;-36
2020/12/22 08:05:38;;;;;;;3.80;0.88;;;;;;;26.98;32.48;96698.63;4954987;28;20042;-31
2020/12/22 08:08:04;;;;;;;3.45;0.50;;;;;;;26.97;32.53;96695.13;4953222;28;20050;-35
2020/12/22 08:10:29;;;;;;;2.65;0.60;;;;;;;26.96;32.51;96709.22;4954309;28;20057;-32
2020/12/22 08:12:56;;;;;;;0.30;0.30;;;;;;;26.97;32.54;96707.44;4968342;28;20042;-33
2020/12/22 08:15:22;;;;;;;2.35;0.60;;;;;;;26.96;32.61;96706.59;4954552;28;20047;-35
2020/12/22 08:17:48;;;;;;;0.47;0.40;;;;;;;26.97;32.53;96715.34;4953144;28;20559;-32
2020/12/22 08:20:14;;;;;;;1.90;0.40;;;;;;;26.97;32.51;96715.34;4968352;28;20047;-32
2020/12/22 08:22:41;;;;;;;2.40;0.77;;;;;;;26.97;32.58;96724.06;4967943;28;20446;-36
2020/12/22 08:25:06;;;;;;;1.38;0.50;;;;;;;26.98;32.59;96722.28;4956011;28;20065;-32
2020/12/22 08:27:32;;;;;;;0.55;0.40;;;;;;;26.98;32.56;96723.16;4954922;28;20686;-32
2020/12/22 08:29:58;;;;;;;0.98;0.57;;;;;;;27.00;32.36;96725.66;4953892;28;20043;-34
2020/12/22 08:32:25;;;;;;;1.10;0.60;;;;;;;27.02;32.52;96729.06;4950680;28;20035;-36
2020/12/22 08:34:53;;;;;;;0.75;0.50;;;;;;;27.05;32.47;96738.53;4954371;28;20059;-31
2020/12/22 08:37:48;;;;;;;1.95;0.60;;;;;;;27.04;32.36;96732.44;4954042;28;20090;-33
2020/12/22 08:40:29;;;;;;;2.28;0.70;;;;;;;27.01;32.44;96732.63;4951214;28;20070;-36
2020/12/22 08:42:54;;;;;;;0.50;0.47;;;;;;;27.00;32.48;96741.44;4955007;28;20074;-32
2020/12/22 08:45:20;;;;;;;2.95;0.50;;;;;;;27.01;32.54;96745.78;4953276;28;20697;-34
2020/12/22 08:47:55;;;;;;;1.25;0.60;;;;;;;27.00;32.49;96750.19;4954187;28;20252;-35
2020/12/22 08:50:21;;;;;;;3.85;0.68;;;;;;;27.02;32.52;96760.63;4952912;28;20043;-34
2020/12/22 08:52:46;;;;;;;0.98;0.40;;;;;;;27.00;32.46;96758.06;4954509;28;20085;-33
2020/12/22 08:55:13;;;;;;;0.73;0.40;;;;;;;26.98;32.48;96753.84;4953226;28;20753;-38
2020/12/22 08:57:39;;;;;;;2.10;0.60;;;;;;;27.02;32.70;96765.88;4955791;28;20063;-35
2020/12/22 09:00:14;;;;;;;0.82;0.43;;;;;;;27.02;32.60;96771.13;4952649;28;20035;-44
2020/12/22 09:02:42;;;;;;;4.68;0.40;;;;;;;27.02;32.68;96771.13;4958895;28;20042;-36
2020/12/22 09:05:11;;;;;;;0.65;0.40;;;;;;;26.98;32.67;96772.25;4953271;28;20061;-35
2020/12/22 09:07:37;;;;;;;3.22;0.50;;;;;;;27.00;32.57;96780.88;4975514;28;20046;-36
2020/12/22 09:10:06;;;;;;;0.52;0.45;;;;;;;27.02;32.71;96780.78;4956380;28;20043;-34
2020/12/22 09:12:32;;;;;;;16.63;1.02;;;;;;;27.03;32.20;96785.97;4950853;28;20143;-33
2020/12/22 09:15:03;;;;;;;2.90;0.60;;;;;;;27.03;32.59;96782.50;4953934;28;20142;-35
2020/12/22 09:17:29;;;;;;;1.55;0.55;;;;;;;27.02;32.77;96786.91;4946592;28;20043;-35
2020/12/22 09:19:55;;;;;;;0.70;0.35;;;;;;;27.03;32.75;96783.34;4949801;28;20050;-32
2020/12/22 09:22:27;;;;;;;3.47;0.70;;;;;;;27.04;32.67;96779.78;4952485;28;20505;-37
2020/12/22 09:24:56;;;;;;;1.35;0.50;;;;;;;27.04;32.01;96782.41;4952621;28;20574;-39
2020/12/22 09:27:37;;;;;;;2.20;0.50;;;;;;;26.83;31.08;96784.47;4951356;28;20058;-33
2020/12/22 09:30:04;;;;;;;4.53;0.70;;;;;;;26.54;31.32;96777.31;4954544;28;20547;-34
2020/12/22 09:32:30;;;;;;;2.22;0.40;;;;;;;26.40;31.89;96780.72;4952324;28;20117;-36
2020/12/22 09:34:55;;;;;;;2.78;0.45;;;;;;;26.38;32.08;96785.22;4953325;28;20042;-33
2020/12/22 09:37:22;;;;;;;10.55;0.40;;;;;;;26.42;32.07;96788.50;4956274;28;20416;-35
2020/12/22 09:39:50;;;;;;;2.65;0.55;;;;;;;26.45;32.17;96783.94;4949311;28;20082;-34
2020/12/22 09:42:16;;;;;;;0.40;0.30;;;;;;;26.50;32.23;96786.28;4950765;28;20053;-33
2020/12/22 09:44:42;;;;;;;1.58;0.45;;;;;;;26.52;32.29;96789.69;4953690;28;20065;-34
2020/12/22 09:47:08;;;;;;;2.50;0.57;;;;;;;26.55;32.27;96793.94;4966394;28;20069;-32
2020/12/22 09:49:34;;;;;;;12.98;1.00;;;;;;;26.53;31.99;96783.50;4959454;28;20613;-35
2020/12/22 09:52:00;;;;;;;7.55;0.73;;;;;;;26.51;32.47;96790.66;4956441;28;20038;-33
2020/12/22 09:54:26;;;;;;;1.85;0.50;;;;;;;26.52;32.62;96789.69;4955436;28;20161;-37
2020/12/22 09:56:52;;;;;;;2.90;0.50;;;;;;;26.54;32.42;96787.81;4955172;28;20047;-33
2020/12/22 09:59:17;;;;;;;1.45;0.50;;;;;;;26.55;32.78;96789.50;4955026;28;20121;-35
2020/12/22 10:01:43;;;;;;;3.75;0.80;;;;;;;26.41;32.66;96765.78;4951660;28;20433;-33
2020/12/22 10:04:10;;;;;;;2.88;0.98;;;;;;;26.59;32.75;96785.78;4955829;28;20850;-32
2020/12/22 10:06:35;;;;;;;5.63;1.13;;;;;;;26.61;32.62;96789.19;4958734;28;20722;-34
2020/12/22 10:09:01;;;;;;;9.73;1.15;;;;;;;26.63;32.73;96791.72;4955395;28;20125;-33
2020/12/22 10:11:30;;;;;;;7.50;1.80;;;;;;;26.65;32.74;96794.28;4957662;28;20105;-33
2020/12/22 10:13:56;;;;;;;9.23;2.00;;;;;;;26.67;32.78;96781.88;4951146;28;20106;-36
2020/12/22 10:16:22;;;;;;;7.22;1.98;;;;;;;26.68;32.84;96791.44;4962545;28;20512;-33
2020/12/22 10:18:50;;;;;;;10.75;2.50;;;;;;;26.67;32.74;96772.22;4965963;28;20050;-35
2020/12/22 10:21:19;;;;;;;11.20;2.28;;;;;;;26.69;32.90;96785.28;4959349;28;20037;-34
2020/12/22 10:23:46;;;;;;;15.88;2.13;;;;;;;26.71;32.83;96791.28;4963270;28;20559;-35
2020/12/22 10:26:13;;;;;;;7.05;2.03;;;;;;;26.72;32.77;96791.19;4961055;28;20081;-34
2020/12/22 10:28:40;;;;;;;6.63;1.98;;;;;;;26.73;32.74;96778.88;4959386;28;20126;-34
2020/12/22 10:31:07;;;;;;;5.75;2.05;;;;;;;26.75;32.80;96792.81;4963336;28;20034;-32
2020/12/22 10:33:32;;;;;;;8.65;2.08;;;;;;;26.76;32.74;96794.50;4969854;28;20470;-32
2020/12/22 10:35:58;;;;;;;6.35;2.03;;;;;;;26.77;32.82;96785.66;4968657;28;20041;-34
2020/12/22 10:38:23;;;;;;;4.97;2.00;;;;;;;26.79;32.71;96790.84;4967068;28;20050;-36
2020/12/22 10:40:49;;;;;;;8.85;2.13;;;;;;;26.80;32.69;96798.63;4962260;28;20047;-36
2020/12/22 10:43:15;;;;;;;7.47;2.08;;;;;;;26.83;32.81;96795.00;4977445;28;20505;-32
2020/12/22 10:45:41;;;;;;;5.30;1.60;;;;;;;26.83;32.70;96793.22;4964343;28;20114;-34
2020/12/22 10:48:07;;;;;;;6.20;1.80;;;;;;;26.85;32.76;96796.59;4963482;28;20429;-33
2020/12/22 10:50:36;;;;;;;5.47;2.03;;;;;;;26.86;32.67;96800.91;4966653;28;20121;-34
2020/12/22 10:53:05;;;;;;;6.10;2.05;;;;;;;26.89;32.71;96797.28;4961991;28;20636;-37
2020/12/22 10:55:31;;;;;;;9.07;2.00;;;;;;;26.90;32.65;96798.09;4973017;28;20496;-34
2020/12/22 10:57:57;;;;;;;5.80;2.17;;;;;;;26.91;32.66;96794.53;4957963;28;20034;-35
2020/12/22 11:00:22;;;;;;;6.65;2.13;;;;;;;26.91;32.57;96798.03;4960678;28;20049;-32
2020/12/22 11:02:50;;;;;;;9.02;1.83;;;;;;;26.92;32.55;96788.38;4968464;28;20559;-36
2020/12/22 11:05:16;;;;;;;6.43;2.00;;;;;;;26.93;32.64;96787.41;4966325;28;20054;-35
2020/12/22 11:07:47;;;;;;;8.13;1.80;;;;;;;26.94;32.51;96791.75;4966501;28;20117;-35
2020/12/22 11:10:13;;;;;;;;;;;;;;;26.95;32.58;96801.34;4959629;28;20041;-35
2020/12/22 11:12:39;;;;;;;5.97;2.10;;;;;;;26.94;32.42;96804.88;4959608;28;19914;-35
2020/12/22 11:15:05;;;;;;;7.70;2.20;;;;;;;26.95;32.64;96806.59;4967602;28;20075;-33
2020/12/22 11:17:30;;;;;;;4.10;1.55;;;;;;;26.96;32.51;96803.91;4965310;28;20050;-36
2020/12/22 11:19:56;;;;;;;5.93;2.00;;;;;;;26.97;32.60;96799.50;4966051;28;20901;-33
2020/12/22 11:22:21;;;;;;;7.05;1.77;;;;;;;26.97;32.58;96799.50;4966143;28;20065;-36
2020/12/22 11:24:46;;;;;;;4.95;1.58;;;;;;;26.97;32.52;96795.06;4958423;28;20106;-34
2020/12/22 11:27:12;;;;;;;5.43;1.92;;;;;;;26.97;32.53;96804.75;4952740;28;20034;-32
2020/12/22 11:29:38;;;;;;;8.25;1.63;;;;;;;26.98;32.53;96795.91;4966471;28;20046;-37
2020/12/22 11:32:03;;;;;;;7.90;1.67;;;;;;;26.98;32.57;96795.91;4966520;28;20038;-33
2020/12/22 11:34:29;;;;;;;4.30;1.33;;;;;;;27.00;32.65;96799.28;4965224;28;20053;-34